createdAt,value
2022-10-19T00:00:18.950Z,90
2022-10-19T00:05:18.832Z,91
2022-10-19T00:10:18.831Z,91
2022-10-19T00:15:18.907Z,91
2022-10-19T00:20:19.051Z,91
2022-10-19T00:25:18.970Z,92
2022-10-19T00:30:18.864Z,92
2022-10-19T00:35:18.916Z,92
2022-10-19T00:40:15.768Z,92
2022-10-19T00:45:15.819Z,92
2022-10-19T00:50:18.962Z,92
2022-10-19T00:55:19.103Z,93
2022-10-19T01:00:18.934Z,93
2022-10-19T01:05:18.886Z,93
2022-10-19T01:10:18.940Z,93
2022-10-19T01:15:18.930Z,93
2022-10-19T01:20:18.887Z,93
2022-10-19T01:25:19.008Z,93
2022-10-19T01:30:18.938Z,93
2022-10-19T01:35:15.959Z,94
2022-10-19T01:40:15.861Z,94
2022-10-19T01:45:19.158Z,93
2022-10-19T01:50:19.039Z,93
2022-10-19T01:55:19.010Z,94
2022-10-19T02:00:19.138Z,93
2022-10-19T02:05:18.937Z,93
2022-10-19T02:10:19.064Z,93
2022-10-19T02:15:19.079Z,93
2022-10-19T02:20:19.098Z,93
2022-10-19T02:25:19.084Z,93
2022-10-19T02:30:16.002Z,94
2022-10-19T02:35:19.249Z,94
2022-10-19T02:40:19.056Z,94
2022-10-19T02:45:19.029Z,94
2022-10-19T02:50:19.093Z,94
2022-10-19T02:55:19.038Z,94
2022-10-19T03:00:19.003Z,94
2022-10-19T03:05:19.109Z,94
2022-10-19T03:10:19.103Z,94
2022-10-19T03:15:19.011Z,93
2022-10-19T03:20:16.095Z,93
2022-10-19T03:25:16.253Z,93
2022-10-19T03:30:19.109Z,93
2022-10-19T03:35:19.230Z,93
2022-10-19T03:40:19.275Z,93
2022-10-19T03:45:19.159Z,93
2022-10-19T03:50:19.187Z,92
2022-10-19T03:55:19.141Z,92
2022-10-19T04:00:20.504Z,92
2022-10-19T04:05:20.484Z,92
2022-10-19T04:10:20.593Z,92
2022-10-19T04:15:20.510Z,92
2022-10-19T04:20:20.634Z,92
2022-10-19T04:25:20.515Z,92
2022-10-19T04:30:20.430Z,92
2022-10-19T04:35:20.515Z,92
2022-10-19T04:40:20.517Z,93
2022-10-19T04:45:18.642Z,93
2022-10-19T04:50:18.565Z,93
2022-10-19T04:55:18.820Z,93
2022-10-19T05:00:18.618Z,93
2022-10-19T05:05:18.577Z,93
2022-10-19T05:10:18.577Z,93
2022-10-19T05:15:18.510Z,93
2022-10-19T05:20:18.727Z,93
2022-10-19T05:25:15.476Z,93
2022-10-19T05:30:18.601Z,93
2022-10-19T05:35:21.557Z,93
2022-10-19T05:40:18.740Z,94
2022-10-19T05:45:18.579Z,94
2022-10-19T05:50:18.671Z,93
2022-10-19T05:55:18.671Z,93
2022-10-19T06:00:18.629Z,93
2022-10-19T06:05:18.698Z,94
2022-10-19T06:10:18.616Z,94
2022-10-19T06:15:15.572Z,94
2022-10-19T06:20:15.575Z,94
2022-10-19T06:25:20.337Z,94
2022-10-19T06:30:18.713Z,94
2022-10-19T06:35:18.714Z,94
2022-10-19T06:40:18.846Z,94
2022-10-19T06:45:18.872Z,94
2022-10-19T06:50:18.840Z,94
2022-10-19T06:55:18.778Z,94
2022-10-19T07:00:18.854Z,94
2022-10-19T07:05:18.829Z,94
2022-10-19T07:10:15.692Z,94
2022-10-19T07:15:15.654Z,94
2022-10-19T07:20:18.851Z,94
2022-10-19T07:25:18.978Z,94
2022-10-19T07:30:18.698Z,94
2022-10-19T07:35:18.935Z,94
2022-10-19T07:40:18.919Z,94
2022-10-19T07:45:18.971Z,93
2022-10-19T07:50:18.950Z,94
2022-10-19T07:55:18.899Z,94
2022-10-19T08:00:18.850Z,93
2022-10-19T08:05:16.414Z,94
2022-10-19T08:10:15.968Z,93
2022-10-19T08:15:18.948Z,93
2022-10-19T08:20:18.964Z,93
2022-10-19T08:25:18.894Z,93
2022-10-19T08:30:18.844Z,94
2022-10-19T08:35:18.985Z,94
2022-10-19T08:40:19.002Z,94
2022-10-19T08:45:18.896Z,94
2022-10-19T08:50:18.978Z,94
2022-10-19T08:55:19.656Z,93
2022-10-19T09:00:15.931Z,93
2022-10-19T09:05:18.938Z,93
2022-10-19T09:10:19.193Z,93
2022-10-19T09:15:19.176Z,93
2022-10-19T09:20:19.157Z,92
2022-10-19T09:25:19.010Z,92
2022-10-19T09:30:19.067Z,92
2022-10-19T09:35:19.034Z,92
2022-10-19T09:40:19.130Z,91
2022-10-19T09:45:18.978Z,92
2022-10-19T09:50:16.234Z,92
2022-10-19T09:55:15.977Z,92
2022-10-19T10:00:19.158Z,92
2022-10-19T10:05:19.017Z,92
2022-10-19T10:10:19.037Z,93
2022-10-19T10:15:19.155Z,93
2022-10-19T10:20:19.014Z,93
2022-10-19T10:25:19.103Z,93
2022-10-19T10:30:19.060Z,92
2022-10-19T10:35:19.134Z,93
2022-10-19T10:40:23.264Z,93
2022-10-19T10:45:16.110Z,93
2022-10-19T10:50:16.134Z,93
2022-10-19T10:55:19.289Z,93
2022-10-19T11:00:19.102Z,93
2022-10-19T11:05:19.253Z,93
2022-10-19T11:10:19.141Z,93
2022-10-19T11:15:19.215Z,93
2022-10-19T11:20:19.170Z,93
2022-10-19T11:25:19.204Z,93
2022-10-19T11:30:19.205Z,93
2022-10-19T11:35:19.269Z,93
2022-10-19T11:40:21.179Z,93
2022-10-19T11:45:16.508Z,94
2022-10-19T11:50:19.226Z,94
2022-10-19T11:55:19.300Z,94
2022-10-19T12:00:38.659Z,94
2022-10-19T12:05:19.334Z,94
2022-10-19T12:10:19.268Z,94
2022-10-19T12:15:19.259Z,94
2022-10-19T12:20:19.952Z,94
2022-10-19T12:25:19.247Z,94
2022-10-19T12:30:16.276Z,94
2022-10-19T12:35:16.265Z,94
2022-10-19T12:40:19.455Z,94
2022-10-19T12:45:19.396Z,93
2022-10-19T12:50:25.866Z,92
2022-10-19T12:55:19.362Z,91
2022-10-19T13:00:19.384Z,89
2022-10-19T13:05:19.402Z,88
2022-10-19T13:10:19.362Z,88
2022-10-19T13:15:19.527Z,86
2022-10-19T13:20:19.448Z,86
2022-10-19T13:25:16.352Z,84
2022-10-19T13:30:16.424Z,83
2022-10-19T13:35:19.550Z,80
2022-10-19T13:40:23.684Z,79
2022-10-19T13:45:19.598Z,76
2022-10-19T13:50:19.577Z,77
2022-10-19T13:55:19.593Z,75
2022-10-19T14:00:20.383Z,76
2022-10-19T14:05:19.712Z,75
2022-10-19T14:10:22.747Z,77
2022-10-19T14:15:20.396Z,76
2022-10-19T14:20:16.465Z,73
2022-10-19T14:25:19.733Z,73
2022-10-19T14:30:19.506Z,73
2022-10-19T14:35:19.576Z,72
2022-10-19T14:40:23.554Z,70
2022-10-19T14:45:19.620Z,72
2022-10-19T14:50:19.585Z,69
2022-10-19T14:55:19.633Z,68
2022-10-19T15:00:19.620Z,68
2022-10-19T15:05:19.663Z,69
2022-10-19T15:10:16.488Z,68
2022-10-19T15:15:16.494Z,67
2022-10-19T15:20:19.855Z,66
2022-10-19T15:25:19.641Z,65
2022-10-19T15:30:19.713Z,65
2022-10-19T15:35:19.736Z,62
2022-10-19T15:40:19.698Z,63
2022-10-19T15:45:19.807Z,61
2022-10-19T15:50:19.776Z,59
2022-10-19T15:55:20.001Z,60
2022-10-19T16:00:19.944Z,61
2022-10-19T16:05:16.656Z,59
2022-10-19T16:10:19.743Z,61
2022-10-19T16:15:19.831Z,62
2022-10-19T16:20:19.916Z,61
2022-10-19T16:25:19.741Z,59
2022-10-19T16:30:19.650Z,59
2022-10-19T16:35:19.910Z,59
2022-10-19T16:40:19.832Z,60
2022-10-19T16:45:19.936Z,57
2022-10-19T16:50:20.117Z,53
2022-10-19T16:55:16.739Z,52
2022-10-19T17:00:16.738Z,53
2022-10-19T17:05:19.890Z,53
2022-10-19T17:10:20.006Z,54
2022-10-19T17:15:55.335Z,51
2022-10-19T17:20:19.901Z,51
2022-10-19T17:25:19.918Z,51
2022-10-19T17:30:19.780Z,52
2022-10-19T17:35:19.841Z,51
2022-10-19T17:40:19.987Z,53
2022-10-19T17:45:19.878Z,50
2022-10-19T17:50:16.801Z,51
2022-10-19T17:55:16.861Z,51
2022-10-19T18:00:19.892Z,51
2022-10-19T18:05:19.935Z,52
2022-10-19T18:10:20.093Z,49
2022-10-19T18:15:19.944Z,49
2022-10-19T18:20:20.079Z,48
2022-10-19T18:25:25.867Z,46
2022-10-19T18:30:19.885Z,46
2022-10-19T18:35:19.984Z,47
2022-10-19T18:40:17.028Z,50
2022-10-19T18:45:16.866Z,48
2022-10-19T18:50:20.010Z,48
2022-10-19T18:55:19.965Z,47
2022-10-19T19:00:19.975Z,51
2022-10-19T19:05:19.990Z,48
2022-10-19T19:10:20.032Z,47
2022-10-19T19:15:20.043Z,44
2022-10-19T19:20:20.206Z,45
2022-10-19T19:25:19.986Z,43
2022-10-19T19:30:19.977Z,44
2022-10-19T19:35:17.008Z,45
2022-10-19T19:40:16.906Z,46
2022-10-19T19:45:20.120Z,44
2022-10-19T19:50:20.073Z,47
2022-10-19T19:55:20.161Z,46
2022-10-19T20:00:20.265Z,45
2022-10-19T20:05:20.066Z,45
2022-10-19T20:10:20.089Z,47
2022-10-19T20:15:20.118Z,46
2022-10-19T20:20:20.116Z,48
2022-10-19T20:25:20.342Z,48
2022-10-19T20:30:17.165Z,47
2022-10-19T20:35:17.309Z,48
2022-10-19T20:40:20.376Z,49
2022-10-19T20:45:20.141Z,50
2022-10-19T20:50:21.900Z,48
2022-10-19T20:55:20.197Z,49
2022-10-19T21:00:20.220Z,52
2022-10-19T21:05:20.280Z,50
2022-10-19T21:10:20.139Z,51
2022-10-19T21:15:20.223Z,52
2022-10-19T21:20:17.075Z,51
2022-10-19T21:25:17.091Z,53
2022-10-19T21:30:20.129Z,52
2022-10-19T21:35:20.306Z,52
2022-10-19T21:40:20.304Z,52
2022-10-19T21:45:30.982Z,53
2022-10-19T21:50:20.306Z,54
2022-10-19T21:55:20.259Z,54
2022-10-19T22:00:20.328Z,55
2022-10-19T22:05:20.332Z,54
2022-10-19T22:10:20.389Z,55
2022-10-19T22:15:17.197Z,55
2022-10-19T22:20:17.181Z,56
2022-10-19T22:25:20.352Z,57
2022-10-19T22:30:20.172Z,57
2022-10-19T22:35:20.411Z,58
2022-10-19T22:40:20.508Z,60
2022-10-19T22:45:20.440Z,63
2022-10-19T22:50:20.405Z,66
2022-10-19T22:55:20.346Z,66
2022-10-19T23:00:20.426Z,63
2022-10-19T23:05:20.486Z,62
2022-10-19T23:10:17.291Z,65
2022-10-19T23:15:20.426Z,66
2022-10-19T23:20:20.486Z,68
2022-10-19T23:25:20.437Z,68
2022-10-19T23:30:20.365Z,71
2022-10-19T23:35:20.539Z,72
2022-10-19T23:40:20.517Z,72
2022-10-19T23:45:20.448Z,71
2022-10-19T23:50:20.424Z,70
2022-10-19T23:55:20.505Z,73
